Time;durP1;ratioP1;P1;durP2;ratioP2;P2;SDS_P1;SDS_P2;PMS_P1;PMS_P2;Temp;Humidity;BMP_temperature;BMP_pressure;BME280_temperature;BME280_humidity;BME280_pressure;Samples;Min_cycle;Max_cycle;Signal;HPM_P1;HPM_P2
2023/03/01 00:00:34;;;;;;;;;;;;;;;-0.72;nan;101556.88;5014199;28;19924;-83
2023/03/01 00:02:59;;;;;;;;;;;;;;;-0.66;nan;101554.06;5013887;28;19924;-85
2023/03/01 00:05:24;;;;;;;;;;;;;;;-0.64;nan;101551.41;5014567;28;20406;-83
2023/03/01 00:07:52;;;;;;;;;;;;;;;-0.59;nan;101549.50;4996981;28;19968;-85
2023/03/01 00:10:17;;;;;;;;;;;;;;;-0.60;nan;101550.38;5013868;28;19918;-84
2023/03/01 00:12:42;;;;;;;;;;;;;;;-0.56;nan;101557.19;5010374;28;19917;-84
2023/03/01 00:15:08;;;;;;;;;;;;;;;-0.54;nan;101546.75;4997303;28;19928;-85
2023/03/01 00:17:33;;;;;;;;;;;;;;;-0.42;nan;101551.47;5012062;28;19967;-82
2023/03/01 00:19:58;;;;;;;;;;;;;;;-0.44;nan;101541.13;4996404;28;19940;-86
2023/03/01 00:22:23;;;;;;;;;;;;;;;-0.41;nan;101544.53;5012898;28;20226;-83
2023/03/01 00:24:48;;;;;;;;;;;;;;;-0.40;nan;101541.03;4996832;28;20178;-84
2023/03/01 00:27:13;;;;;;;;;;;;;;;-0.45;nan;101538.63;4996283;28;19924;-83
2023/03/01 00:29:39;;;;;;;;;;;;;;;-0.40;nan;101551.44;5014426;28;20071;-83
2023/03/01 00:32:04;;;;;;;;;;;;;;;-0.39;nan;101540.13;5012822;28;19917;-83
2023/03/01 00:34:29;;;;;;;;;;;;;;;-0.41;nan;101540.19;5015019;28;19917;-83
2023/03/01 00:36:54;;;;;;;;;;;;;;;-0.41;nan;101545.38;5015908;28;19922;-83
2023/03/01 00:39:19;;;;;;;;;;;;;;;-0.44;nan;101545.50;5016927;28;19996;-85
2023/03/01 00:41:45;;;;;;;;;;;;;;;-0.40;nan;101547.09;5017090;28;19918;-85
2023/03/01 00:44:10;;;;;;;;;;;;;;;-0.39;nan;101551.38;5017507;28;19973;-84
2023/03/01 00:46:35;;;;;;;;;;;;;;;-0.42;nan;101554.09;4999432;28;19917;-85
2023/03/01 00:49:02;;;;;;;;;;;;;;;-0.44;nan;101555.88;4996783;28;19917;-83
2023/03/01 00:51:27;;;;;;;;;;;;;;;-0.38;nan;101552.22;5018922;28;20021;-83
2023/03/01 00:53:53;;;;;;;;;;;;;;;-0.43;nan;101552.38;5016652;28;20380;-83
2023/03/01 00:56:19;;;;;;;;;;;;;;;-0.44;nan;101542.91;5016285;28;19948;-82
2023/03/01 00:58:44;;;;;;;;;;;;;;;-0.44;nan;101535.94;5011945;28;19933;-81
2023/03/01 01:01:17;;;;;;;;;;;;;;;-0.43;nan;101526.38;4990913;28;19917;-83
2023/03/01 01:03:43;;;;;;;;;;;;;;;-0.41;nan;101527.19;5012713;28;19940;-83
2023/03/01 01:06:12;;;;;;;;;;;;;;;-0.43;nan;101526.38;5011449;28;20165;-82
2023/03/01 01:08:38;;;;;;;;;;;;;;;-0.43;nan;101521.19;5013713;28;19936;-83
2023/03/01 01:11:03;;;;;;;;;;;;;;;-0.41;nan;101511.59;5015388;28;19917;-82
2023/03/01 01:13:28;;;;;;;;;;;;;;;-0.38;nan;101513.22;5011986;28;19924;-83
2023/03/01 01:15:54;;;;;;;;;;;;;;;-0.27;nan;101514.53;4994534;28;19956;-82
2023/03/01 01:18:19;;;;;;;;;;;;;;;-0.32;nan;101508.66;4995155;28;20017;-83
2023/03/01 01:20:44;;;;;;;;;;;;;;;-0.40;nan;101510.72;5013383;28;19963;-83
2023/03/01 01:23:09;;;;;;;;;;;;;;;-0.43;nan;101506.47;5012569;28;19988;-83
2023/03/01 01:25:36;;;;;;;;;;;;;;;-0.42;nan;101509.91;5011838;28;19925;-82
2023/03/01 01:28:01;;;;;;;;;;;;;;;-0.40;nan;101507.25;5010420;28;19952;-82
2023/03/01 01:30:26;;;;;;;;;;;;;;;-0.41;nan;101509.00;4991300;28;19952;-82
2023/03/01 01:32:51;;;;;;;;;;;;;;;-0.34;nan;101500.06;5007358;28;19917;-82
2023/03/01 01:35:16;;;;;;;;;;;;;;;-0.28;nan;101493.81;5008090;28;19921;-82
2023/03/01 01:37:41;;;;;;;;;;;;;;;-0.25;nan;101489.31;5011177;28;20346;-82
2023/03/01 01:40:09;;;;;;;;;;;;;;;-0.26;nan;101479.84;4993362;28;19917;-82
2023/03/01 01:42:34;;;;;;;;;;;;;;;-0.22;nan;101468.41;5011920;28;19949;-83
2023/03/01 01:45:18;;;;;;;;;;;;;;;-0.13;nan;101463.78;4995240;28;19920;-84
2023/03/01 01:47:43;;;;;;;;;;;;;;;-0.12;nan;101474.13;5011690;28;19944;-84
2023/03/01 01:50:15;;;;;;;;;;;;;;;-0.11;nan;101472.34;5004886;28;19917;-82
2023/03/01 01:52:40;;;;;;;;;;;;;;;-0.09;nan;101468.78;5001136;28;19918;-84
2023/03/01 01:55:08;;;;;;;;;;;;;;;0.00;nan;101467.59;5011966;28;19926;-82
2023/03/01 01:57:35;;;;;;;;;;;;;;;0.03;nan;101459.66;5010904;28;19917;-82
2023/03/01 02:00:05;;;;;;;;;;;;;;;0.08;nan;101475.09;5014345;28;19921;-85
2023/03/01 02:02:30;;;;;;;;;;;;;;;0.09;nan;101463.75;5009335;28;19951;-85
2023/03/01 02:05:03;;;;;;;;;;;;;;;0.02;nan;101468.34;4997691;28;20452;-83
2023/03/01 02:07:30;;;;;;;;;;;;;;;0.00;nan;101467.59;5003036;28;20461;-84
2023/03/01 02:09:55;;;;;;;;;;;;;;;-0.02;nan;101464.19;4998213;28;19917;-84
2023/03/01 02:12:23;;;;;;;;;;;;;;;-0.04;nan;101466.00;5014704;28;19918;-85
2023/03/01 02:14:48;;;;;;;;;;;;;;;0.02;nan;101464.91;5010307;28;19927;-85
2023/03/01 02:17:15;;;;;;;;;;;;;;;0.06;nan;101456.09;4993274;28;20303;-83
2023/03/01 02:19:46;;;;;;;;;;;;;;;0.02;nan;101455.34;5010703;28;19966;-82
2023/03/01 02:22:23;;;;;;;;;;;;;;;0.03;nan;101451.88;4980471;28;19972;-84
2023/03/01 02:25:00;;;;;;;;;;;;;;;0.00;nan;101446.78;4995167;28;19921;-82
2023/03/01 02:27:29;;;;;;;;;;;;;;;-0.03;nan;101449.50;4995033;28;19917;-83
2023/03/01 02:29:54;;;;;;;;;;;;;;;-0.03;nan;101449.50;5013208;28;20371;-83
2023/03/01 02:32:24;;;;;;;;;;;;;;;-0.08;nan;101451.44;4996721;28;19928;-83
2023/03/01 02:34:51;;;;;;;;;;;;;;;-0.07;nan;101450.50;4995005;28;19964;-83
2023/03/01 02:37:24;;;;;;;;;;;;;;;-0.13;nan;101450.78;5016241;28;19980;-83
2023/03/01 02:39:51;;;;;;;;;;;;;;;-0.16;nan;101449.13;5016506;28;20365;-84
2023/03/01 02:42:20;;;;;;;;;;;;;;;-0.26;nan;101443.47;4999079;28;19917;-83
2023/03/01 02:44:45;;;;;;;;;;;;;;;-0.32;nan;101446.28;5000013;28;19921;-83
2023/03/01 02:47:10;;;;;;;;;;;;;;;-0.32;nan;101435.88;5017904;28;20218;-84
2023/03/01 02:49:36;;;;;;;;;;;;;;;-0.31;nan;101445.41;5018748;28;20294;-86
2023/03/01 02:52:20;;;;;;;;;;;;;;;-0.34;nan;101434.25;5017602;28;19944;-84
2023/03/01 02:54:51;;;;;;;;;;;;;;;-0.39;nan;101429.25;4993955;28;20170;-83
2023/03/01 02:57:17;;;;;;;;;;;;;;;-0.37;nan;101431.78;4996998;28;19961;-83
2023/03/01 02:59:42;;;;;;;;;;;;;;;-0.38;nan;101420.56;5014782;28;19921;-84
2023/03/01 03:02:37;;;;;;;;;;;;;;;-0.36;nan;101418.72;4996073;28;20366;-83
2023/03/01 03:05:05;;;;;;;;;;;;;;;-0.37;nan;101418.78;5014331;28;19917;-83
2023/03/01 03:07:31;;;;;;;;;;;;;;;-0.40;nan;101409.38;5015312;28;19918;-84
2023/03/01 03:09:56;;;;;;;;;;;;;;;-0.41;nan;101404.22;5016299;28;19921;-82
2023/03/01 03:12:21;;;;;;;;;;;;;;;-0.36;nan;101400.53;4996474;28;19929;-84
2023/03/01 03:14:46;;;;;;;;;;;;;;;-0.38;nan;101402.38;5014775;28;19921;-85
2023/03/01 03:17:11;;;;;;;;;;;;;;;-0.38;nan;101407.56;5014518;28;20389;-82
2023/03/01 03:19:36;;;;;;;;;;;;;;;-0.35;nan;101402.22;4996833;28;19921;-86
2023/03/01 03:22:02;;;;;;;;;;;;;;;-0.36;nan;101395.31;5013851;28;20378;-83
2023/03/01 03:24:28;;;;;;;;;;;;;;;-0.35;nan;101391.00;4991825;28;19923;-84
2023/03/01 03:26:53;;;;;;;;;;;;;;;-0.34;nan;101388.31;5015361;28;20310;-85
2023/03/01 03:29:18;;;;;;;;;;;;;;;-0.35;nan;101391.84;4996257;28;19918;-83
2023/03/01 03:31:43;;;;;;;;;;;;;;;-0.31;nan;101379.56;5013731;28;19917;-84
2023/03/01 03:34:17;;;;;;;;;;;;;;;-0.23;nan;101385.31;5014229;28;20008;-83
2023/03/01 03:36:42;;;;;;;;;;;;;;;-0.17;nan;101390.25;5012888;28;19917;-84
2023/03/01 03:39:07;;;;;;;;;;;;;;;-0.11;nan;101386.56;4996977;28;20393;-84
2023/03/01 03:41:34;;;;;;;;;;;;;;;-0.20;nan;101387.78;5015937;28;19956;-83
2023/03/01 03:43:59;;;;;;;;;;;;;;;-0.24;nan;101381.88;4999033;28;19933;-85
2023/03/01 03:46:25;;;;;;;;;;;;;;;-0.26;nan;101383.69;5014452;28;19918;-85
2023/03/01 03:48:50;;;;;;;;;;;;;;;-0.26;nan;101380.25;5011384;28;19924;-83
2023/03/01 03:51:16;;;;;;;;;;;;;;;-0.24;nan;101379.28;5008064;28;20420;-84
2023/03/01 03:53:42;;;;;;;;;;;;;;;-0.24;nan;101378.41;5008820;28;20353;-85
2023/03/01 03:56:07;;;;;;;;;;;;;;;-0.22;nan;101379.19;4995480;28;19921;-83
2023/03/01 03:58:33;;;;;;;;;;;;;;;-0.30;nan;101373.47;5012132;28;19929;-82
2023/03/01 04:00:59;;;;;;;;;;;;;;;-0.25;nan;101374.97;5013178;28;19924;-83
2023/03/01 04:03:25;;;;;;;;;;;;;;;-0.32;nan;101378.72;4994002;28;19924;-82
2023/03/01 04:05:51;;;;;;;;;;;;;;;-0.34;nan;101374.50;5010119;28;19925;-82
2023/03/01 04:08:19;;;;;;;;;;;;;;;-0.38;nan;101368.59;5010473;28;19921;-83
2023/03/01 04:10:45;;;;;;;;;;;;;;;-0.42;nan;101372.19;5012288;28;19944;-83
2023/03/01 04:13:11;;;;;;;;;;;;;;;-0.46;nan;101376.66;5012647;28;19960;-82
2023/03/01 04:15:37;;;;;;;;;;;;;;;-0.45;nan;101373.16;5009275;28;19917;-82
2023/03/01 04:18:02;;;;;;;;;;;;;;;-0.46;nan;101375.81;5009018;28;20422;-82
2023/03/01 04:20:29;;;;;;;;;;;;;;;-0.51;nan;101372.56;5009065;28;19917;-84
2023/03/01 04:23:13;;;;;;;;;;;;;;;-0.56;nan;101379.69;5016995;28;20287;-85
2023/03/01 04:25:55;;;;;;;;;;;;;;;-0.63;nan;101379.06;5014256;28;19944;-85
2023/03/01 04:28:26;;;;;;;;;;;;;;;-0.64;nan;101385.19;5021391;28;19913;-85
2023/03/01 04:30:52;;;;;;;;;;;;;;;-0.63;nan;101383.44;5022939;28;20307;-82
2023/03/01 04:33:17;;;;;;;;;;;;;;;-0.64;nan;101380.00;5003640;28;19953;-84
2023/03/01 04:35:43;;;;;;;;;;;;;;;-0.62;nan;101383.38;5020481;28;19917;-85
2023/03/01 04:38:08;;;;;;;;;;;;;;;-0.60;nan;101384.13;4999893;28;19922;-83
2023/03/01 04:40:34;;;;;;;;;;;;;;;-0.61;nan;101379.03;5016611;28;20004;-84
2023/03/01 04:42:59;;;;;;;;;;;;;;;-0.65;nan;101381.72;5016269;28;19969;-84
2023/03/01 04:45:24;;;;;;;;;;;;;;;-0.64;nan;101387.78;5016209;28;20222;-82
2023/03/01 04:47:51;;;;;;;;;;;;;;;-0.61;nan;101386.81;5016771;28;19917;-82
2023/03/01 04:50:17;;;;;;;;;;;;;;;-0.61;nan;101389.41;5013679;28;20295;-83
2023/03/01 04:52:43;;;;;;;;;;;;;;;-0.61;nan;101392.84;5015335;28;19920;-83
2023/03/01 04:55:09;;;;;;;;;;;;;;;-0.60;nan;101391.09;5014902;28;20215;-83
2023/03/01 04:57:34;;;;;;;;;;;;;;;-0.62;nan;101390.31;5014234;28;19960;-82
2023/03/01 04:59:59;;;;;;;;;;;;;;;-0.61;nan;101389.41;5014389;28;19917;-82
2023/03/01 05:02:24;;;;;;;;;;;;;;;-0.62;nan;101391.16;5012152;28;20032;-82
2023/03/01 05:04:49;;;;;;;;;;;;;;;-0.61;nan;101379.88;5013698;28;19918;-82
2023/03/01 05:07:19;;;;;;;;;;;;;;;-0.61;nan;101381.63;5012963;28;19961;-82
2023/03/01 05:09:44;;;;;;;;;;;;;;;-0.64;nan;101382.59;4993816;28;19917;-82
2023/03/01 05:12:09;;;;;;;;;;;;;;;-0.66;nan;101385.22;5012282;28;19924;-83
2023/03/01 05:14:34;;;;;;;;;;;;;;;-0.68;nan;101375.81;5012667;28;19917;-82
2023/03/01 05:17:03;;;;;;;;;;;;;;;-0.73;nan;101375.16;5011132;28;19932;-82
2023/03/01 05:19:30;;;;;;;;;;;;;;;-0.79;nan;101372.78;5006921;28;19926;-82
2023/03/01 05:22:01;;;;;;;;;;;;;;;-0.83;nan;101377.25;5010962;28;19925;-82
2023/03/01 05:24:27;;;;;;;;;;;;;;;-0.90;nan;101384.41;5012150;28;20286;-82
2023/03/01 05:26:53;;;;;;;;;;;;;;;-0.84;nan;101375.53;4994003;28;19924;-82
2023/03/01 05:29:24;;;;;;;;;;;;;;;-0.81;nan;101372.84;5011630;28;20031;-82
2023/03/01 05:32:00;;;;;;;;;;;;;;;-0.78;nan;101379.66;4992931;28;19917;-82
2023/03/01 05:34:26;;;;;;;;;;;;;;;-0.81;nan;101374.56;5011458;28;19913;-82
2023/03/01 05:36:52;;;;;;;;;;;;;;;-0.78;nan;101372.72;5010836;28;19975;-82
2023/03/01 05:39:18;;;;;;;;;;;;;;;-0.69;nan;101372.38;5010112;28;19921;-82
2023/03/01 05:41:43;;;;;;;;;;;;;;;-0.64;nan;101377.41;4994854;28;20000;-82
2023/03/01 05:44:09;;;;;;;;;;;;;;;-0.57;nan;101380.56;5012546;28;19925;-82
2023/03/01 05:46:34;;;;;;;;;;;;;;;-0.62;nan;101370.41;5011598;28;19919;-82
2023/03/01 05:48:59;;;;;;;;;;;;;;;-0.65;nan;101376.53;4993756;28;19921;-82
2023/03/01 05:51:25;;;;;;;;;;;;;;;-0.54;nan;101377.88;5012381;28;19917;-82
2023/03/01 05:53:51;;;;;;;;;;;;;;;-0.51;nan;101370.81;4995156;28;19924;-82
2023/03/01 05:56:16;;;;;;;;;;;;;;;-0.51;nan;101377.75;5013143;28;19921;-82
2023/03/01 05:58:41;;;;;;;;;;;;;;;-0.53;nan;101379.56;4993545;28;19983;-82
2023/03/01 06:01:10;;;;;;;;;;;;;;;-0.61;nan;101374.66;4993796;28;20029;-82
2023/03/01 06:03:35;;;;;;;;;;;;;;;-0.61;nan;101377.25;5006490;28;20346;-82
2023/03/01 06:06:01;;;;;;;;;;;;;;;-0.59;nan;101369.44;5009956;28;19925;-82
2023/03/01 06:08:27;;;;;;;;;;;;;;;-0.59;nan;101372.88;4990451;28;20520;-82
2023/03/01 06:10:52;;;;;;;;;;;;;;;-0.54;nan;101373.53;5016114;28;19952;-82
2023/03/01 06:13:17;;;;;;;;;;;;;;;-0.52;nan;101368.28;5014577;28;19927;-82
2023/03/01 06:15:42;;;;;;;;;;;;;;;-0.50;nan;101366.44;5018892;28;20059;-82
2023/03/01 06:18:08;;;;;;;;;;;;;;;-0.45;nan;101365.38;5012894;28;19918;-82
2023/03/01 06:20:33;;;;;;;;;;;;;;;-0.38;nan;101366.00;4999945;28;19952;-82
2023/03/01 06:22:59;;;;;;;;;;;;;;;-0.29;nan;101367.34;5011753;28;20230;-83
2023/03/01 06:25:25;;;;;;;;;;;;;;;-0.29;nan;101370.78;5001340;28;19913;-82
2023/03/01 06:27:52;;;;;;;;;;;;;;;-0.24;nan;101370.59;4999253;28;19928;-82
2023/03/01 06:30:18;;;;;;;;;;;;;;;-0.18;nan;101367.78;5017535;28;19921;-82
2023/03/01 06:32:43;;;;;;;;;;;;;;;-0.17;nan;101369.44;5022552;28;19972;-82
2023/03/01 06:35:10;;;;;;;;;;;;;;;-0.15;nan;101359.84;4999599;28;19967;-83
2023/03/01 06:37:35;;;;;;;;;;;;;;;-0.17;nan;101364.25;4993035;28;20469;-83
2023/03/01 06:40:04;;;;;;;;;;;;;;;-0.12;nan;101362.34;5015495;28;19994;-82
2023/03/01 06:42:29;;;;;;;;;;;;;;;-0.06;nan;101369.03;5013555;28;19968;-82
2023/03/01 06:44:55;;;;;;;;;;;;;;;0.01;nan;101365.28;5013587;28;20271;-81
2023/03/01 06:47:20;;;;;;;;;;;;;;;0.04;nan;101362.53;5017682;28;19944;-82
2023/03/01 06:49:45;;;;;;;;;;;;;;;0.08;nan;101353.69;5019014;28;19972;-82
2023/03/01 06:52:10;;;;;;;;;;;;;;;0.14;nan;101361.25;5018375;28;19959;-82
2023/03/01 06:54:36;;;;;;;;;;;;;;;0.27;nan;101360.75;5001171;28;19985;-82
2023/03/01 06:57:01;;;;;;;;;;;;;;;0.32;nan;101356.19;5019150;28;19936;-82
2023/03/01 06:59:26;;;;;;;;;;;;;;;0.37;nan;101365.47;5015424;28;19948;-82
2023/03/01 07:01:51;;;;;;;;;;;;;;;0.45;nan;101361.69;4995116;28;19917;-82
2023/03/01 07:04:16;;;;;;;;;;;;;;;0.49;nan;101360.66;5013951;28;19921;-82
2023/03/01 07:06:42;;;;;;;;;;;;;;;0.55;nan;101363.84;5000263;28;20000;-81
2023/03/01 07:09:07;;;;;;;;;;;;;;;0.67;nan;101352.06;5014954;28;19925;-82
2023/03/01 07:11:32;;;;;;;;;;;;;;;0.78;nan;101352.41;5012813;28;19925;-82
2023/03/01 07:13:59;;;;;;;;;;;;;;;1.06;nan;101356.38;5007496;28;20314;-82
2023/03/01 07:16:25;;;;;;;;;;;;;;;1.28;nan;101348.41;5020247;28;20583;-83
2023/03/01 07:18:50;;;;;;;;;;;;;;;1.56;nan;101347.09;5021342;28;19918;-82
2023/03/01 07:21:16;;;;;;;;;;;;;;;1.81;nan;101351.94;4999347;28;19918;-83
2023/03/01 07:23:41;;;;;;;;;;;;;;;2.17;nan;101346.69;5016616;28;20395;-83
2023/03/01 07:26:06;;;;;;;;;;;;;;;2.37;nan;101340.44;5016392;28;20021;-83
2023/03/01 07:28:35;;;;;;;;;;;;;;;2.81;nan;101339.03;5016949;28;19913;-83
2023/03/01 07:31:04;;;;;;;;;;;;;;;3.36;nan;101331.66;4998721;28;19921;-83
2023/03/01 07:33:29;;;;;;;;;;;;;;;3.55;nan;101334.09;5017770;28;19976;-83
2023/03/01 07:35:58;;;;;;;;;;;;;;;3.59;nan;101329.50;5000626;28;19948;-82
2023/03/01 07:38:24;;;;;;;;;;;;;;;3.89;nan;101333.94;4998892;28;20012;-83
2023/03/01 07:40:49;;;;;;;;;;;;;;;3.91;nan;101327.69;5004557;28;19949;-83
2023/03/01 07:43:14;;;;;;;;;;;;;;;3.55;nan;101325.38;5018213;28;19921;-83
2023/03/01 07:45:39;;;;;;;;;;;;;;;3.12;nan;101327.75;4998443;28;19913;-83
2023/03/01 07:48:04;;;;;;;;;;;;;;;3.01;nan;101328.38;5015915;28;19920;-84
2023/03/01 07:50:30;;;;;;;;;;;;;;;2.74;nan;101326.31;4999900;28;20367;-83
2023/03/01 07:52:55;;;;;;;;;;;;;;;2.52;nan;101323.97;4999975;28;19913;-83
2023/03/01 07:55:20;;;;;;;;;;;;;;;2.40;nan;101323.78;5032515;28;20399;-83
2023/03/01 07:57:45;;;;;;;;;;;;;;;2.32;nan;101318.97;5017006;28;19922;-82
2023/03/01 08:00:11;;;;;;;;;;;;;;;2.23;nan;101320.28;4997983;28;20015;-82
2023/03/01 08:02:36;;;;;;;;;;;;;;;2.27;nan;101319.19;5015692;28;19913;-83
2023/03/01 08:05:01;;;;;;;;;;;;;;;2.17;nan;101315.38;4998777;28;20428;-83
2023/03/01 08:07:26;;;;;;;;;;;;;;;2.05;nan;101313.38;4997474;28;19921;-83
2023/03/01 08:09:52;;;;;;;;;;;;;;;2.00;nan;101313.63;4997574;28;19940;-82
2023/03/01 08:12:17;;;;;;;;;;;;;;;1.98;nan;101312.84;4996353;28;19917;-83
2023/03/01 08:14:42;;;;;;;;;;;;;;;2.06;nan;101302.88;5014108;28;19925;-82
2023/03/01 08:17:07;;;;;;;;;;;;;;;1.98;nan;101299.81;5013712;28;20323;-82
2023/03/01 08:19:34;;;;;;;;;;;;;;;2.08;nan;101303.63;5013223;28;19917;-83
2023/03/01 08:22:00;;;;;;;;;;;;;;;1.99;nan;101296.28;5014166;28;20019;-82
2023/03/01 08:24:26;;;;;;;;;;;;;;;2.10;nan;101290.53;4995029;28;19933;-82
2023/03/01 08:26:51;;;;;;;;;;;;;;;2.22;nan;101299.50;4996345;28;20048;-82
2023/03/01 08:29:16;;;;;;;;;;;;;;;2.28;nan;101297.38;4996742;28;19922;-82
2023/03/01 08:31:41;;;;;;;;;;;;;;;2.30;nan;101298.16;5013685;28;19921;-83
2023/03/01 08:34:08;;;;;;;;;;;;;;;2.37;nan;101301.28;5012940;28;19952;-82
2023/03/01 08:36:39;;;;;;;;;;;;;;;2.44;nan;101292.22;5014081;28;19918;-83
2023/03/01 08:39:05;;;;;;;;;;;;;;;2.52;nan;101294.41;4996978;28;19917;-84
2023/03/01 08:41:30;;;;;;;;;;;;;;;2.58;nan;101298.50;5013388;28;20441;-84
2023/03/01 08:43:58;;;;;;;;;;;;;;;2.67;nan;101290.13;5014297;28;19936;-82
2023/03/01 08:46:24;;;;;;;;;;;;;;;3.11;nan;101284.28;5013930;28;19941;-83
2023/03/01 08:48:51;;;;;;;;;;;;;;;4.09;nan;101290.88;5014309;28;19921;-83
2023/03/01 08:51:18;;;;;;;;;;;;;;;4.93;nan;101284.88;4996129;28;20000;-84
2023/03/01 08:53:44;;;;;;;;;;;;;;;5.73;nan;101272.69;4996168;28;19918;-84
2023/03/01 08:56:09;;;;;;;;;;;;;;;6.49;nan;101281.59;4996449;28;19917;-83
2023/03/01 08:58:35;;;;;;;;;;;;;;;6.84;nan;101276.50;5015831;28;19921;-84
2023/03/01 09:01:00;;;;;;;;;;;;;;;7.26;nan;101269.06;5016738;28;19920;-84
2023/03/01 09:03:25;;;;;;;;;;;;;;;7.57;nan;101275.53;5016921;28;19913;-83
2023/03/01 09:05:51;;;;;;;;;;;;;;;8.28;nan;101268.41;5016346;28;19943;-84
2023/03/01 09:08:16;;;;;;;;;;;;;;;8.20;nan;101256.75;5015265;28;20140;-84
2023/03/01 09:10:42;;;;;;;;;;;;;;;8.77;nan;101266.41;5004076;28;19914;-84
2023/03/01 09:13:07;;;;;;;;;;;;;;;8.77;nan;101266.41;4995484;28;19925;-85
2023/03/01 09:15:33;;;;;;;;;;;;;;;9.18;nan;101264.88;4997176;28;20316;-83
2023/03/01 09:17:58;;;;;;;;;;;;;;;9.28;nan;101254.41;4979237;28;19940;-84
2023/03/01 09:20:24;;;;;;;;;;;;;;;9.30;nan;101260.41;4996754;28;19925;-84
2023/03/01 09:22:49;;;;;;;;;;;;;;;8.81;nan;101249.34;4997134;28;19992;-84
2023/03/01 09:25:14;;;;;;;;;;;;;;;9.09;nan;101255.88;4984931;28;19918;-84
2023/03/01 09:27:39;;;;;;;;;;;;;;;9.22;nan;101254.88;4983862;28;20376;-84
2023/03/01 09:30:05;;;;;;;;;;;;;;;8.65;nan;101247.13;4994141;28;19949;-84
2023/03/01 09:32:31;;;;;;;;;;;;;;;9.20;nan;101248.91;4974660;28;20282;-84
2023/03/01 09:35:05;;;;;;;;;;;;;;;9.85;nan;101239.97;4974351;28;20127;-83
2023/03/01 09:37:34;;;;;;;;;;;;;;;9.46;nan;101237.06;4991478;28;19922;-84
2023/03/01 09:39:59;;;;;;;;;;;;;;;9.87;nan;101235.41;4991126;28;19913;-83
2023/03/01 09:42:25;;;;;;;;;;;;;;;9.62;nan;101244.53;4989938;28;19964;-84
2023/03/01 09:44:50;;;;;;;;;;;;;;;8.38;nan;101242.16;4976469;28;19921;-84
2023/03/01 09:47:21;;;;;;;;;;;;;;;8.04;nan;101242.16;4985530;28;19936;-83
2023/03/01 09:50:06;;;;;;;;;;;;;;;7.38;nan;101241.03;5000422;28;19968;-84
2023/03/01 09:52:37;;;;;;;;;;;;;;;6.79;nan;101241.78;4997304;28;19913;-84
2023/03/01 09:55:08;;;;;;;;;;;;;;;6.40;nan;101246.28;4998178;28;19920;-84
2023/03/01 09:57:38;;;;;;;;;;;;;;;5.91;nan;101241.72;4997841;28;19953;-84
2023/03/01 10:00:12;;;;;;;;;;;;;;;6.05;nan;101232.97;4996456;28;20286;-83
2023/03/01 10:02:44;;;;;;;;;;;;;;;5.86;nan;101235.97;4977944;28;19976;-82
2023/03/01 10:05:12;;;;;;;;;;;;;;;5.63;nan;101225.25;4978365;28;19920;-84
2023/03/01 10:07:37;;;;;;;;;;;;;;;5.58;nan;101231.72;4980146;28;19928;-83
2023/03/01 10:10:05;;;;;;;;;;;;;;;5.65;nan;101220.72;4987457;28;19940;-83
2023/03/01 10:12:35;;;;;;;;;;;;;;;5.47;nan;101224.56;5016504;28;19914;-84
2023/03/01 10:15:09;;;;;;;;;;;;;;;5.62;nan;101220.91;5001305;28;19924;-84
2023/03/01 10:17:34;;;;;;;;;;;;;;;5.48;nan;101227.09;5000102;28;19917;-83
2023/03/01 10:20:14;;;;;;;;;;;;;;;5.37;nan;101220.88;5000080;28;19943;-84
2023/03/01 10:22:39;;;;;;;;;;;;;;;6.06;nan;101217.09;5019029;28;19920;-83
2023/03/01 10:25:05;;;;;;;;;;;;;;;7.14;nan;101210.31;5020706;28;20285;-85
2023/03/01 10:27:50;;;;;;;;;;;;;;;8.19;nan;101219.06;4999948;28;19977;-84
2023/03/01 10:30:19;;;;;;;;;;;;;;;9.22;nan;101205.59;5000588;28;19949;-83
2023/03/01 10:32:48;;;;;;;;;;;;;;;9.94;nan;101204.00;5001256;28;20007;-83
2023/03/01 10:35:17;;;;;;;;;;;;;;;10.45;nan;101200.50;5005888;28;19917;-84
2023/03/01 10:37:57;;;;;;;;;;;;;;;11.50;nan;101193.78;5009195;28;19963;-85
2023/03/01 10:40:23;;;;;;;;;;;;;;;11.58;nan;101192.06;5030177;28;19918;-84
2023/03/01 10:42:49;;;;;;;;;;;;;;;12.68;nan;101183.47;4999509;28;20028;-83
2023/03/01 10:45:26;;;;;;;;;;;;;;;13.00;nan;101178.63;5018135;28;19921;-84
2023/03/01 10:48:24;;;;;;;;;;;;;;;12.84;nan;101176.63;5019653;28;19913;-84
2023/03/01 10:51:09;;;;;;;;;;;;;;;14.49;nan;101177.63;4982708;28;20001;-83
2023/03/01 10:53:40;;;;;;;;;;;;;;;15.45;nan;101168.28;5017429;28;19924;-84
2023/03/01 10:56:05;;;;;;;;;;;;;;;15.24;nan;101168.78;5017602;28;19917;-84
2023/03/01 10:58:31;;;;;;;;;;;;;;;15.97;nan;101167.03;5020087;28;19922;-84
2023/03/01 11:00:58;;;;;;;;;;;;;;;15.80;nan;101156.44;5001105;28;20406;-84
2023/03/01 11:03:25;;;;;;;;;;;;;;;15.46;nan;101152.09;5019451;28;20012;-84
2023/03/01 11:05:52;;;;;;;;;;;;;;;15.28;nan;101140.81;5000707;28;20389;-84
2023/03/01 11:08:29;;;;;;;;;;;;;;;15.26;nan;101138.31;5017420;28;20060;-84
2023/03/01 11:11:03;;;;;;;;;;;;;;;14.35;nan;101136.50;5000786;28;19913;-84
2023/03/01 11:13:29;;;;;;;;;;;;;;;15.44;nan;101127.44;4999544;28;19940;-84
2023/03/01 11:16:09;;;;;;;;;;;;;;;16.29;nan;101129.53;5019055;28;19917;-84
2023/03/01 11:18:35;;;;;;;;;;;;;;;16.12;nan;101125.31;5004349;28;19921;-84
2023/03/01 11:21:01;;;;;;;;;;;;;;;16.25;nan;101133.56;5001787;28;20367;-84
2023/03/01 11:23:28;;;;;;;;;;;;;;;16.13;nan;101126.94;5018656;28;19921;-85
2023/03/01 11:25:55;;;;;;;;;;;;;;;16.45;nan;101130.47;5018244;28;19913;-84
2023/03/01 11:28:22;;;;;;;;;;;;;;;15.94;nan;101122.84;4998622;28;19918;-84
2023/03/01 11:31:05;;;;;;;;;;;;;;;15.74;nan;101108.28;4999199;28;19940;-85
2023/03/01 11:33:42;;;;;;;;;;;;;;;15.13;nan;101107.84;5016184;28;20378;-84
2023/03/01 11:36:13;;;;;;;;;;;;;;;15.03;nan;101095.50;4996442;28;19917;-85
2023/03/01 11:38:39;;;;;;;;;;;;;;;13.63;nan;101100.59;4998506;28;19929;-85
2023/03/01 11:41:07;;;;;;;;;;;;;;;13.99;nan;101094.16;5015987;28;19925;-85
2023/03/01 11:43:45;;;;;;;;;;;;;;;13.72;nan;101097.00;4996036;28;19921;-85
2023/03/01 11:46:10;;;;;;;;;;;;;;;12.51;nan;101088.75;4995451;28;20725;-83
2023/03/01 11:48:42;;;;;;;;;;;;;;;12.46;nan;101085.72;4997129;28;19917;-84
2023/03/01 11:51:17;;;;;;;;;;;;;;;12.17;nan;101080.59;5016648;28;20059;-84
2023/03/01 11:54:01;;;;;;;;;;;;;;;12.26;nan;101085.84;5016678;28;19914;-84
2023/03/01 11:56:40;;;;;;;;;;;;;;;11.48;nan;101083.50;5016470;28;19924;-84
2023/03/01 11:59:05;;;;;;;;;;;;;;;11.08;nan;101073.13;4977901;28;20147;-84
2023/03/01 12:01:37;;;;;;;;;;;;;;;10.72;nan;101078.19;4985840;28;19917;-84
2023/03/01 12:04:02;;;;;;;;;;;;;;;10.69;nan;101069.69;4992100;28;19917;-84
2023/03/01 12:06:35;;;;;;;;;;;;;;;10.37;nan;101065.50;5003594;28;20389;-84
2023/03/01 12:09:17;;;;;;;;;;;;;;;10.39;nan;101063.53;4997580;28;20305;-84
2023/03/01 12:11:45;;;;;;;;;;;;;;;9.78;nan;101046.00;4991345;28;19937;-84
2023/03/01 12:14:24;;;;;;;;;;;;;;;9.59;nan;101053.84;5015527;28;20007;-84
2023/03/01 12:16:55;;;;;;;;;;;;;;;9.50;nan;101051.03;5016408;28;19949;-84
2023/03/01 12:19:26;;;;;;;;;;;;;;;9.49;nan;101033.53;5019831;28;19981;-84
2023/03/01 12:21:58;;;;;;;;;;;;;;;9.12;nan;101038.47;5020759;28;20074;-84
2023/03/01 12:24:31;;;;;;;;;;;;;;;9.09;nan;101025.53;5011903;28;19997;-83
2023/03/01 12:27:00;;;;;;;;;;;;;;;9.11;nan;101018.31;5007805;28;19921;-84
2023/03/01 12:29:34;;;;;;;;;;;;;;;8.92;nan;101013.78;4994879;28;20469;-84
2023/03/01 12:32:07;;;;;;;;;;;;;;;8.54;nan;101017.78;5002013;28;19917;-84
2023/03/01 12:34:52;;;;;;;;;;;;;;;8.50;nan;101008.47;4991064;28;20366;-83
2023/03/01 12:37:20;;;;;;;;;;;;;;;8.41;nan;101009.22;5009519;28;20000;-83
2023/03/01 12:40:04;;;;;;;;;;;;;;;8.40;nan;101002.28;5010464;28;19988;-83
2023/03/01 12:42:42;;;;;;;;;;;;;;;8.45;nan;100997.47;5005458;28;19917;-84
2023/03/01 12:45:26;;;;;;;;;;;;;;;8.33;nan;100995.81;4992525;28;19917;-84
2023/03/01 12:48:10;;;;;;;;;;;;;;;7.99;nan;101002.03;4991739;28;19936;-84
2023/03/01 12:50:41;;;;;;;;;;;;;;;8.06;nan;100994.47;5000914;28;20291;-83
2023/03/01 12:53:08;;;;;;;;;;;;;;;7.97;nan;100976.78;5010906;28;20272;-84
2023/03/01 12:55:42;;;;;;;;;;;;;;;8.00;nan;100974.72;4993861;28;19940;-84
2023/03/01 12:58:09;;;;;;;;;;;;;;;8.01;nan;100960.59;5010640;28;19957;-84
2023/03/01 13:00:45;;;;;;;;;;;;;;;7.99;nan;100962.50;4993496;28;19913;-84
2023/03/01 13:03:25;;;;;;;;;;;;;;;7.88;nan;100963.38;5011681;28;19917;-83